Time;durP1;ratioP1;P1;durP2;ratioP2;P2;SDS_P1;SDS_P2;PMS_P1;PMS_P2;Temp;Humidity;BMP_temperature;BMP_pressure;BME280_temperature;BME280_humidity;BME280_pressure;Samples;Min_cycle;Max_cycle;Signal;HPM_P1;HPM_P2
2023/06/04 00:02:03;;;;;;;1.03;1.03;;;;;;;19.10;57.24;96533.56;10493877;28;20025;-33
2023/06/04 00:07:03;;;;;;;1.30;1.20;;;;;;;19.10;57.20;96536.09;10490345;28;20291;-33
2023/06/04 00:12:04;;;;;;;1.30;1.20;;;;;;;19.25;58.43;96536.06;10509968;28;20402;-32
2023/06/04 00:17:04;;;;;;;0.98;0.98;;;;;;;19.42;57.94;96536.78;10491774;28;20024;-32
2023/06/04 00:22:06;;;;;;;1.08;0.98;;;;;;;19.34;57.74;96533.44;10487189;28;20048;-34
2023/06/04 00:27:08;;;;;;;1.05;0.90;;;;;;;19.23;57.63;96530.13;10500479;28;20032;-33
2023/06/04 00:32:08;;;;;;;1.15;1.05;;;;;;;19.19;57.59;96531.00;10495759;28;20032;-33
2023/06/04 00:37:09;;;;;;;1.40;1.30;;;;;;;19.06;57.29;96511.56;10492496;28;20028;-34
2023/06/04 00:42:09;;;;;;;1.30;1.20;;;;;;;19.14;57.28;96523.38;10475452;28;20032;-33
2023/06/04 00:47:12;;;;;;;1.30;1.20;;;;;;;19.14;57.35;96519.97;10473820;28;20032;-32
2023/06/04 00:52:15;;;;;;;1.13;1.02;;;;;;;19.13;57.19;96520.84;10478047;28;20780;-33
2023/06/04 00:57:15;;;;;;;1.40;1.30;;;;;;;19.12;57.01;96514.94;10491715;28;20040;-32
2023/06/04 01:02:22;;;;;;;1.57;1.47;;;;;;;19.11;57.14;96512.41;10488223;28;20029;-32
2023/06/04 01:07:26;;;;;;;1.38;1.27;;;;;;;19.14;58.76;96517.44;10498699;28;20158;-32
2023/06/04 01:12:26;;;;;;;0.98;0.98;;;;;;;19.33;58.16;96524.97;10491556;28;20033;-33
2023/06/04 01:17:37;;;;;;;0.90;0.90;;;;;;;19.39;57.35;96519.88;10485390;28;20032;-33
2023/06/04 01:23:01;;;;;;;1.30;1.20;;;;;;;19.28;57.84;96528.41;10470784;28;20430;-33
2023/06/04 01:28:04;;;;;;;1.10;1.00;;;;;;;19.20;57.54;96520.00;10497930;28;20035;-32
2023/06/04 01:33:04;;;;;;;1.05;0.95;;;;;;;19.17;57.62;96523.34;10497779;28;20024;-33
2023/06/04 01:38:06;;;;;;;1.25;1.15;;;;;;;19.15;57.41;96524.22;10472565;28;20566;-33
2023/06/04 01:43:07;;;;;;;1.40;1.30;;;;;;;19.13;57.22;96528.44;10489584;28;20032;-32
2023/06/04 01:48:07;;;;;;;1.00;0.90;;;;;;;19.13;57.29;96533.53;10489317;28;20062;-32
2023/06/04 01:53:08;;;;;;;1.45;1.35;;;;;;;19.12;57.13;96529.31;10490769;28;20043;-33
2023/06/04 01:58:09;;;;;;;1.30;1.20;;;;;;;19.10;57.02;96533.56;10497374;28;20393;-32
2023/06/04 02:03:10;;;;;;;1.70;1.10;;;;;;;19.10;57.17;96520.88;10488805;28;20352;-32
2023/06/04 02:08:11;;;;;;;1.20;1.10;;;;;;;19.25;58.02;96515.75;10487475;28;20033;-32
2023/06/04 02:13:11;;;;;;;1.50;1.40;;;;;;;19.42;57.74;96529.16;10497362;28;20028;-33
2023/06/04 02:18:16;;;;;;;0.83;0.83;;;;;;;19.33;57.67;96524.97;10497389;28;20035;-32
2023/06/04 02:23:18;;;;;;;1.30;1.20;;;;;;;19.22;57.61;96521.66;10496570;28;20035;-33
2023/06/04 02:28:18;;;;;;;1.38;1.27;;;;;;;19.19;57.64;96526.75;10489471;28;20055;-33
2023/06/04 02:33:20;;;;;;;1.17;1.08;;;;;;;19.16;57.40;96526.75;10476632;28;20031;-33
2023/06/04 02:38:20;;;;;;;1.48;1.38;;;;;;;19.15;57.37;96529.28;10496940;28;20036;-33
2023/06/04 02:43:21;;;;;;;1.60;1.50;;;;;;;19.13;57.25;96521.69;10509125;28;20273;-33
2023/06/04 02:48:21;;;;;;;1.30;1.20;;;;;;;19.13;57.03;96529.31;10497100;28;20131;-33
2023/06/04 02:53:23;;;;;;;1.30;1.20;;;;;;;19.12;57.03;96537.78;10492615;28;20631;-33
2023/06/04 02:58:25;;;;;;;1.40;1.20;;;;;;;19.12;57.03;96536.91;10478597;28;20037;-32
2023/06/04 03:03:26;;;;;;;1.23;1.13;;;;;;;19.15;58.90;96539.44;10489756;28;20051;-32
2023/06/04 03:08:27;;;;;;;1.27;1.17;;;;;;;19.35;58.13;96535.13;10477585;28;20098;-32
2023/06/04 03:13:27;;;;;;;1.00;0.90;;;;;;;19.37;57.79;96530.88;10491873;28;20095;-32
2023/06/04 03:18:28;;;;;;;1.17;1.08;;;;;;;19.25;57.51;96530.97;10502510;28;20031;-33
2023/06/04 03:23:29;;;;;;;1.00;1.00;;;;;;;19.19;57.68;96538.63;10504557;28;20372;-33
2023/06/04 03:28:30;;;;;;;1.40;1.30;;;;;;;19.17;57.26;96545.38;10490726;28;20033;-33
2023/06/04 03:33:30;;;;;;;1.83;1.00;;;;;;;19.13;57.14;96541.13;10475802;28;20032;-33
2023/06/04 03:38:31;;;;;;;1.50;1.20;;;;;;;19.13;57.00;96541.13;10472899;28;20033;-33
2023/06/04 03:43:32;;;;;;;1.20;1.10;;;;;;;19.11;57.03;96543.72;10484800;28;20120;-32
2023/06/04 03:48:36;;;;;;;1.33;1.23;;;;;;;19.13;57.03;96553.81;10475330;28;20115;-33
2023/06/04 03:53:37;;;;;;;1.40;1.30;;;;;;;19.12;56.99;96550.47;10476218;28;20495;-33
2023/06/04 03:58:37;;;;;;;1.23;1.13;;;;;;;19.10;56.90;96552.16;10492936;28;20040;-33
2023/06/04 04:03:38;;;;;;;0.90;0.90;;;;;;;19.30;57.93;96554.63;10470939;28;20290;-34
2023/06/04 04:08:42;;;;;;;1.30;1.20;;;;;;;19.44;57.30;96557.91;10475340;28;20410;-32
2023/06/04 04:13:45;;;;;;;1.10;1.00;;;;;;;19.29;57.58;96550.38;10470447;28;20036;-33
2023/06/04 04:18:46;;;;;;;1.08;1.00;;;;;;;19.22;57.54;96553.81;10500603;28;20063;-32
2023/06/04 04:23:46;;;;;;;1.75;1.05;;;;;;;19.19;57.05;96556.38;10474280;28;20027;-33
2023/06/04 04:28:47;;;;;;;1.00;1.00;;;;;;;19.15;57.36;96575.81;10470525;28;20031;-32
2023/06/04 04:33:47;;;;;;;1.35;1.25;;;;;;;19.15;57.24;96572.41;10478772;28;20390;-34
2023/06/04 04:38:53;;;;;;;1.00;1.00;;;;;;;19.14;57.13;96580.88;10474033;28;20051;-32
2023/06/04 04:44:03;;;;;;;1.33;1.23;;;;;;;19.13;56.98;96586.81;10491299;28;20028;-33
2023/06/04 04:49:03;;;;;;;1.30;1.20;;;;;;;19.08;57.24;96573.31;10472940;28;20036;-33
2023/06/04 04:54:04;;;;;;;1.63;1.40;;;;;;;19.10;57.04;96577.53;10491808;28;20031;-32
2023/06/04 04:59:07;;;;;;;0.90;0.90;;;;;;;19.19;58.87;96580.03;10475967;28;20113;-33
2023/06/04 05:04:08;;;;;;;1.30;1.20;;;;;;;19.38;57.59;96580.78;10472043;28;20115;-32
2023/06/04 05:09:08;;;;;;;1.23;1.13;;;;;;;19.41;57.33;96578.25;10473415;28;20525;-33
2023/06/04 05:14:09;;;;;;;1.27;1.17;;;;;;;19.26;57.61;96588.50;10472009;28;20024;-32
2023/06/04 05:19:10;;;;;;;1.20;1.10;;;;;;;19.21;57.39;96592.75;10469864;28;20039;-32
2023/06/04 05:24:12;;;;;;;1.42;1.33;;;;;;;19.17;57.33;96593.59;10473128;28;20021;-33
2023/06/04 05:29:13;;;;;;;1.40;1.30;;;;;;;19.15;57.57;96605.41;10466652;28;20025;-32
2023/06/04 05:34:18;;;;;;;1.13;1.10;;;;;;;19.14;57.26;96603.72;10472958;28;20043;-32
2023/06/04 05:39:20;;;;;;;1.30;1.20;;;;;;;19.13;57.03;96604.59;10506096;28;20368;-33
2023/06/04 05:44:30;;;;;;;1.40;1.30;;;;;;;19.12;56.93;96620.66;10476302;28;20040;-32
2023/06/04 05:49:31;;;;;;;1.38;1.27;;;;;;;19.12;57.04;96625.75;10472491;28;20537;-33
2023/06/04 05:54:33;;;;;;;1.40;1.30;;;;;;;19.12;57.16;96623.19;10472301;28;20091;-32
2023/06/04 05:59:34;;;;;;;1.98;1.30;;;;;;;19.29;57.97;96634.16;10474728;28;20564;-33
2023/06/04 06:04:37;;;;;;;1.23;1.13;;;;;;;19.44;57.46;96634.09;10472298;28;20055;-32
2023/06/04 06:09:38;;;;;;;1.27;1.10;;;;;;;19.29;57.24;96635.00;10469927;28;20037;-32
2023/06/04 06:14:39;;;;;;;1.45;1.20;;;;;;;19.22;57.52;96640.09;10472167;28;20059;-32
2023/06/04 06:19:40;;;;;;;1.50;1.40;;;;;;;19.18;57.44;96640.94;10478935;28;20327;-33
2023/06/04 06:24:41;;;;;;;1.20;1.10;;;;;;;19.15;57.19;96640.94;10490055;28;20048;-33
2023/06/04 06:29:42;;;;;;;1.08;1.08;;;;;;;19.11;57.13;96649.44;10485559;28;20374;-33
2023/06/04 06:34:42;;;;;;;1.30;1.20;;;;;;;19.13;57.15;96656.19;10489169;28;20029;-33
2023/06/04 06:39:43;;;;;;;1.20;1.10;;;;;;;19.13;56.97;96660.41;10490927;28;20031;-33
2023/06/04 06:44:44;;;;;;;1.33;1.23;;;;;;;19.12;56.96;96661.25;10492576;28;20033;-32
2023/06/04 06:49:44;;;;;;;1.45;1.35;;;;;;;19.11;57.01;96669.72;10497122;28;20036;-32
2023/06/04 06:54:46;;;;;;;0.90;0.90;;;;;;;19.21;58.21;96677.34;10493557;28;20024;-34
2023/06/04 06:59:46;;;;;;;1.05;1.00;;;;;;;19.40;57.95;96668.81;10496537;28;20275;-33
2023/06/04 07:04:46;;;;;;;1.43;1.33;;;;;;;19.37;57.52;96658.66;10493781;28;20040;-33
2023/06/04 07:09:47;;;;;;;0.90;0.90;;;;;;;19.26;57.47;96659.56;10497923;28;20294;-33
2023/06/04 07:14:47;;;;;;;1.13;1.03;;;;;;;19.19;57.48;96653.66;10496208;28;20491;-32
2023/06/04 07:19:47;;;;;;;1.60;1.50;;;;;;;19.17;57.37;96660.41;10487138;28;20033;-32
2023/06/04 07:24:48;;;;;;;1.20;1.10;;;;;;;19.15;57.17;96667.19;10495476;28;20301;-32
2023/06/04 07:29:48;;;;;;;1.50;1.40;;;;;;;19.15;57.33;96668.84;10492954;28;20032;-33
2023/06/04 07:34:48;;;;;;;1.47;1.20;;;;;;;19.14;57.30;96673.09;10495094;28;20047;-32
2023/06/04 07:39:49;;;;;;;1.30;1.20;;;;;;;19.15;57.17;96681.53;10491674;28;20040;-31
2023/06/04 07:44:49;;;;;;;1.65;1.30;;;;;;;19.14;57.07;96683.25;10494764;28;20040;-33
2023/06/04 07:49:50;;;;;;;1.63;1.53;;;;;;;19.14;57.46;96690.88;10492350;28;20039;-32
2023/06/04 07:54:50;;;;;;;1.20;1.10;;;;;;;19.33;58.16;96691.69;10493335;28;20041;-32
2023/06/04 07:59:51;;;;;;;1.20;1.10;;;;;;;19.46;57.32;96689.09;10492640;28;20032;-33
2023/06/04 08:04:52;;;;;;;1.30;1.20;;;;;;;19.32;57.48;96695.06;10494021;28;20060;-33
2023/06/04 08:09:52;;;;;;;1.33;1.23;;;;;;;19.24;58.03;96691.72;10488678;28;20558;-32
2023/06/04 08:14:56;;;;;;;1.65;1.55;;;;;;;19.20;57.43;96687.50;10502008;28;20042;-33
2023/06/04 08:19:57;;;;;;;1.27;1.17;;;;;;;19.18;57.44;96681.56;10488226;28;20044;-32
2023/06/04 08:24:57;;;;;;;0.75;0.75;;;;;;;19.16;57.38;96688.34;10490051;28;20102;-33
2023/06/04 08:29:58;;;;;;;1.50;1.40;;;;;;;19.16;57.35;96688.34;10487792;28;20123;-33
2023/06/04 08:34:58;;;;;;;1.70;1.45;;;;;;;19.14;57.16;96680.72;10489212;28;20025;-33
2023/06/04 08:39:58;;;;;;;2.50;1.10;;;;;;;19.14;57.11;96684.94;10492468;28;20119;-32
2023/06/04 08:44:59;;;;;;;1.77;1.47;;;;;;;19.14;57.22;96672.25;10484397;28;20646;-33
2023/06/04 08:50:02;;;;;;;1.40;1.30;;;;;;;19.21;58.92;96667.19;10490891;28;20269;-34
2023/06/04 08:55:04;;;;;;;1.02;0.98;;;;;;;19.41;57.89;96674.75;10478068;28;20680;-33
2023/06/04 09:00:07;;;;;;;0.95;0.95;;;;;;;19.43;57.56;96678.94;10486458;28;20036;-33
2023/06/04 09:05:12;;;;;;;1.17;1.08;;;;;;;19.28;57.80;96683.25;10491592;28;20032;-32
2023/06/04 09:10:15;;;;;;;1.30;1.20;;;;;;;19.24;57.95;96681.56;10489777;28;20406;-32
2023/06/04 09:15:15;;;;;;;1.85;1.30;;;;;;;19.20;57.49;96680.75;10496182;28;20036;-32
2023/06/04 09:20:20;;;;;;;0.98;0.98;;;;;;;19.19;57.39;96675.66;10490727;28;20078;-32
2023/06/04 09:25:26;;;;;;;1.33;1.23;;;;;;;19.17;57.35;96675.63;10488449;28;20036;-32
2023/06/04 09:30:27;;;;;;;2.00;1.40;;;;;;;19.17;57.53;96675.63;10493080;28;20036;-33
2023/06/04 09:35:27;;;;;;;1.20;1.10;;;;;;;19.16;57.42;96679.00;10490704;28;20037;-33
2023/06/04 09:40:37;;;;;;;1.40;1.30;;;;;;;19.16;57.40;96678.19;10490831;28;20074;-33
2023/06/04 09:45:38;;;;;;;1.63;1.52;;;;;;;19.17;57.72;96677.34;10483823;28;20111;-32
2023/06/04 09:50:41;;;;;;;1.23;1.13;;;;;;;19.35;58.13;96677.28;10483487;28;20469;-33
2023/06/04 09:55:42;;;;;;;1.10;1.00;;;;;;;19.48;57.79;96673.84;10499793;28;20510;-31
2023/06/04 10:00:45;;;;;;;1.27;1.17;;;;;;;19.34;58.45;96675.59;10488364;28;20119;-32
2023/06/04 10:05:45;;;;;;;1.08;0.98;;;;;;;19.27;57.83;96671.41;10491651;28;20068;-34
2023/06/04 10:10:47;;;;;;;1.20;1.10;;;;;;;19.23;57.89;96672.25;10486314;28;20064;-32
2023/06/04 10:15:48;;;;;;;1.55;1.45;;;;;;;19.21;57.69;96672.28;10494078;28;20440;-32
2023/06/04 10:20:49;;;;;;;1.23;1.13;;;;;;;19.17;57.55;96659.56;10492296;28;20028;-32
2023/06/04 10:25:52;;;;;;;1.38;1.27;;;;;;;19.19;57.67;96678.19;10495999;28;20502;-33
2023/06/04 10:30:52;;;;;;;1.50;1.40;;;;;;;19.18;57.39;96673.94;10498681;28;20028;-32
2023/06/04 10:35:57;;;;;;;1.10;1.10;;;;;;;19.15;57.49;96657.03;10494664;28;20029;-32
2023/06/04 10:40:58;;;;;;;1.55;1.45;;;;;;;19.17;57.53;96654.50;10492011;28;20032;-34
2023/06/04 10:45:58;;;;;;;1.33;1.23;;;;;;;19.24;59.70;96656.19;10498444;28;20402;-32
2023/06/04 10:50:58;;;;;;;1.40;1.10;;;;;;;19.43;58.27;96657.78;10496941;28;20393;-33
2023/06/04 10:55:59;;;;;;;1.07;1.00;;;;;;;19.45;57.90;96656.09;10497950;28;20337;-32
2023/06/04 11:00:59;;;;;;;1.10;1.00;;;;;;;19.32;58.27;96644.28;10489188;28;20050;-33
2023/06/04 11:06:00;;;;;;;0.80;0.80;;;;;;;19.22;58.04;96637.56;10493801;28;20041;-33
2023/06/04 11:11:10;;;;;;;1.30;1.20;;;;;;;19.23;58.06;96642.66;10490123;28;20040;-33
2023/06/04 11:16:19;;;;;;;1.42;1.33;;;;;;;19.23;57.99;96650.25;10494694;28;20079;-33
2023/06/04 11:21:19;;;;;;;1.42;1.33;;;;;;;19.23;57.97;96646.88;10495720;28;20036;-33
2023/06/04 11:26:21;;;;;;;1.60;1.40;;;;;;;19.22;57.91;96650.25;10493684;28;20029;-33
2023/06/04 11:31:22;;;;;;;1.60;1.48;;;;;;;19.22;57.92;96638.44;10494121;28;20044;-33
2023/06/04 11:36:25;;;;;;;1.80;1.70;;;;;;;19.21;57.90;96625.72;10495159;28;20028;-33
2023/06/04 11:41:30;;;;;;;1.77;1.67;;;;;;;19.22;58.12;96627.41;10492411;28;20033;-33
2023/06/04 11:46:34;;;;;;;0.82;0.82;;;;;;;19.38;59.04;96618.88;10494726;28;20115;-33
2023/06/04 11:51:34;;;;;;;0.80;0.80;;;;;;;19.52;58.17;96622.19;10487498;28;20040;-33
2023/06/04 11:56:35;;;;;;;0.90;0.90;;;;;;;19.36;58.37;96615.50;10493138;28;20514;-32
2023/06/04 12:01:35;;;;;;;0.80;0.80;;;;;;;19.30;58.29;96611.31;10493725;28;20040;-32
2023/06/04 12:06:35;;;;;;;1.30;1.20;;;;;;;19.24;58.31;96606.25;10492588;28;20711;-33
2023/06/04 12:11:37;;;;;;;1.30;1.20;;;;;;;19.26;58.18;96608.81;10493446;28;20291;-32
2023/06/04 12:16:37;;;;;;;1.27;1.17;;;;;;;19.25;58.08;96604.56;10490559;28;20154;-34
2023/06/04 12:21:39;;;;;;;1.50;1.40;;;;;;;19.24;58.03;96592.75;10489028;28;20162;-33
2023/06/04 12:26:41;;;;;;;1.40;1.30;;;;;;;19.23;58.14;96604.56;10492717;28;20283;-33
2023/06/04 12:31:43;;;;;;;1.50;1.40;;;;;;;19.23;58.07;96591.03;10487883;28;20111;-34
2023/06/04 12:36:43;;;;;;;1.40;1.30;;;;;;;19.24;58.32;96613.88;10491964;28;20489;-32
2023/06/04 12:41:46;;;;;;;1.03;0.93;;;;;;;19.31;59.80;96617.22;10490778;28;20043;-33
2023/06/04 12:46:47;;;;;;;0.80;0.80;;;;;;;19.48;58.48;96612.88;10492275;28;20036;-32
2023/06/04 12:51:47;;;;;;;0.60;0.60;;;;;;;19.50;58.46;96629.00;10484204;28;20101;-32
2023/06/04 12:56:48;;;;;;;0.90;0.90;;;;;;;19.37;58.53;96619.72;10491097;28;20287;-32
2023/06/04 13:01:50;;;;;;;1.10;1.00;;;;;;;19.30;58.19;96620.59;10500347;28;20040;-33
2023/06/04 13:06:53;;;;;;;1.23;1.13;;;;;;;19.25;58.17;96614.72;10490424;28;20032;-32
2023/06/04 13:11:53;;;;;;;1.40;1.30;;;;;;;19.26;58.06;96621.50;10491728;28;20498;-33
2023/06/04 13:16:53;;;;;;;1.00;0.90;;;;;;;19.25;58.66;96615.56;10490669;28;20032;-32
2023/06/04 13:21:54;;;;;;;1.40;1.30;;;;;;;19.25;58.12;96614.72;10482778;28;20048;-33
2023/06/04 13:26:55;;;;;;;1.27;1.17;;;;;;;19.26;58.27;96624.84;10491663;28;20040;-33
2023/06/04 13:31:56;;;;;;;1.70;1.60;;;;;;;19.24;58.39;96610.50;10487040;28;20028;-32
2023/06/04 13:36:56;;;;;;;1.47;1.37;;;;;;;19.25;57.89;96617.28;10490824;28;20024;-33
2023/06/04 13:41:56;;;;;;;1.30;1.20;;;;;;;19.41;59.58;96618.88;10497833;28;20040;-34
2023/06/04 13:46:58;;;;;;;1.07;0.97;;;;;;;19.53;58.31;96608.66;10491027;28;20050;-32
2023/06/04 13:51:59;;;;;;;0.75;0.75;;;;;;;19.43;58.76;96607.03;10502684;28;20398;-32
2023/06/04 13:57:03;;;;;;;1.13;1.02;;;;;;;19.33;58.52;96618.06;10496762;28;20040;-32
2023/06/04 14:02:04;;;;;;;1.20;1.10;;;;;;;19.28;58.36;96617.25;10498552;28;20036;-31
2023/06/04 14:07:06;;;;;;;0.90;0.90;;;;;;;19.23;57.98;96598.63;10497337;28;20483;-32
2023/06/04 14:12:08;;;;;;;0.98;0.88;;;;;;;19.21;58.11;96600.34;10511339;28;20067;-33
2023/06/04 14:17:08;;;;;;;1.10;1.00;;;;;;;19.23;58.18;96613.88;10498133;28;20107;-33
2023/06/04 14:22:10;;;;;;;1.10;1.00;;;;;;;19.22;58.04;96607.09;10489390;28;20453;-33
2023/06/04 14:27:11;;;;;;;1.30;1.20;;;;;;;19.23;57.74;96599.50;10498180;28;20040;-33
2023/06/04 14:32:11;;;;;;;1.57;1.33;;;;;;;19.23;57.68;96603.72;10489575;28;20109;-33
2023/06/04 14:37:11;;;;;;;1.23;0.90;;;;;;;19.29;59.56;96596.94;10506306;28;20637;-33
2023/06/04 14:42:12;;;;;;;0.87;0.87;;;;;;;19.47;58.31;96591.75;10489868;28;20077;-32
2023/06/04 14:47:13;;;;;;;0.98;0.88;;;;;;;19.50;58.10;96588.34;10495533;28;20119;-33
2023/06/04 14:52:14;;;;;;;2.25;1.05;;;;;;;19.39;58.42;96579.94;10496864;28;20032;-33
2023/06/04 14:57:16;;;;;;;0.90;0.90;;;;;;;19.34;58.58;96577.44;10495534;28;20133;-32
2023/06/04 15:02:19;;;;;;;1.30;1.20;;;;;;;19.30;58.58;96580.00;10495854;28;20285;-32
2023/06/04 15:07:21;;;;;;;1.40;1.30;;;;;;;19.26;58.31;96575.81;10490420;28;20033;-32
2023/06/04 15:12:22;;;;;;;1.25;1.08;;;;;;;19.26;58.34;96573.25;10496660;28;20028;-33
2023/06/04 15:17:22;;;;;;;1.20;1.03;;;;;;;19.27;58.30;96577.50;10494539;28;20040;-32
2023/06/04 15:22:24;;;;;;;0.83;0.80;;;;;;;19.26;58.09;96573.25;10496306;28;20382;-33
2023/06/04 15:27:25;;;;;;;1.23;1.13;;;;;;;19.24;57.97;96574.97;10489061;28;20039;-32
2023/06/04 15:32:25;;;;;;;1.48;1.30;;;;;;;19.24;58.17;96575.81;10494505;28;20025;-33
2023/06/04 15:37:26;;;;;;;1.30;1.20;;;;;;;19.41;58.43;96573.19;10494945;28;20047;-33
2023/06/04 15:42:26;;;;;;;0.98;0.98;;;;;;;19.55;58.27;96592.56;10490178;28;20087;-35
2023/06/04 15:47:27;;;;;;;1.05;0.98;;;;;;;19.41;58.65;96584.16;10490861;28;20071;-33
2023/06/04 15:52:27;;;;;;;0.63;0.63;;;;;;;19.36;58.61;96579.97;10489215;28;20106;-32
2023/06/04 15:57:27;;;;;;;0.70;0.70;;;;;;;19.30;58.96;96575.78;10494216;28;20028;-33
2023/06/04 16:02:28;;;;;;;1.30;1.20;;;;;;;19.32;58.46;96578.28;10492219;28;20091;-33
2023/06/04 16:07:28;;;;;;;1.13;1.03;;;;;;;19.31;58.36;96571.53;10493885;28;20075;-32
2023/06/04 16:12:29;;;;;;;1.83;1.33;;;;;;;19.29;58.63;96573.25;10494089;28;20073;-31
2023/06/04 16:17:29;;;;;;;1.57;1.30;;;;;;;19.28;58.22;96581.72;10484892;28;20032;-32
2023/06/04 16:22:29;;;;;;;1.30;1.20;;;;;;;19.26;58.07;96571.56;10493479;28;20291;-32
2023/06/04 16:27:31;;;;;;;1.30;1.17;;;;;;;19.26;58.15;96583.41;10497021;28;20286;-32
2023/06/04 16:32:31;;;;;;;1.33;1.23;;;;;;;19.33;60.54;96595.22;10492871;28;20028;-32
2023/06/04 16:37:31;;;;;;;0.80;0.68;;;;;;;19.51;58.36;96587.50;10483811;28;20039;-32
2023/06/04 16:42:33;;;;;;;0.90;0.80;;;;;;;19.43;58.35;96572.28;10484714;28;20044;-33
2023/06/04 16:47:36;;;;;;;0.82;0.82;;;;;;;19.38;58.53;96578.25;10500522;28;20357;-33
2023/06/04 16:52:37;;;;;;;0.73;0.73;;;;;;;19.32;58.45;96579.16;10488177;28;20029;-34
2023/06/04 16:57:37;;;;;;;1.08;0.98;;;;;;;19.28;58.30;96571.56;10491864;28;20032;-32
2023/06/04 17:02:38;;;;;;;1.30;1.20;;;;;;;19.28;57.92;96576.63;10491039;28;20043;-33
2023/06/04 17:07:38;;;;;;;1.20;1.10;;;;;;;19.26;57.87;96570.72;10491660;28;20032;-33
2023/06/04 17:12:38;;;;;;;0.73;0.70;;;;;;;19.26;57.86;96574.09;10490539;28;20028;-32
2023/06/04 17:17:39;;;;;;;1.43;1.30;;;;;;;19.26;57.78;96570.72;10490540;28;20482;-33
2023/06/04 17:22:39;;;;;;;0.98;0.90;;;;;;;19.25;57.88;96571.59;10491519;28;20295;-32
2023/06/04 17:27:40;;;;;;;0.90;0.90;;;;;;;19.25;58.16;96571.59;10489749;28;20275;-33
2023/06/04 17:32:40;;;;;;;0.80;0.80;;;;;;;19.44;59.21;96578.22;10491003;28;20374;-33
2023/06/04 17:37:41;;;;;;;0.80;0.80;;;;;;;19.57;58.51;96577.28;10494668;28;20044;-34
2023/06/04 17:42:46;;;;;;;0.68;0.68;;;;;;;19.43;58.94;96572.28;10490826;28;20101;-32
2023/06/04 17:47:46;;;;;;;0.80;0.80;;;;;;;19.35;58.34;96565.59;10489680;28;20028;-33
2023/06/04 17:52:47;;;;;;;0.77;0.70;;;;;;;19.31;58.58;96566.44;10496057;28;20032;-33
2023/06/04 17:57:47;;;;;;;0.70;0.70;;;;;;;19.29;58.15;96573.25;10492407;28;20059;-33
2023/06/04 18:02:47;;;;;;;0.73;0.73;;;;;;;19.27;57.98;96569.88;10491129;28;20029;-33
2023/06/04 18:07:49;;;;;;;0.73;0.73;;;;;;;19.25;57.88;96566.50;10490215;28;20440;-32
2023/06/04 18:12:50;;;;;;;1.33;1.23;;;;;;;19.25;57.84;96574.94;10497552;28;20028;-33
2023/06/04 18:17:50;;;;;;;1.15;1.05;;;;;;;19.25;57.75;96581.72;10490131;28;20037;-32
2023/06/04 18:22:51;;;;;;;0.80;0.80;;;;;;;19.23;57.83;96576.66;10488563;28;20093;-34
2023/06/04 18:27:51;;;;;;;1.48;1.35;;;;;;;19.32;59.59;96583.34;10497005;28;20040;-32
2023/06/04 18:32:53;;;;;;;1.00;0.90;;;;;;;19.50;58.57;96580.75;10489490;28;20041;-32
2023/06/04 18:37:53;;;;;;;0.80;0.80;;;;;;;19.53;58.25;96583.25;10488011;28;20565;-32
2023/06/04 18:42:54;;;;;;;0.95;0.88;;;;;;;19.40;58.42;96591.78;10496750;28;20288;-32
2023/06/04 18:47:54;;;;;;;0.53;0.53;;;;;;;19.33;58.36;96590.16;10493938;28;20037;-33
2023/06/04 18:52:55;;;;;;;0.70;0.70;;;;;;;19.29;58.30;96593.53;10497100;28;20032;-33
2023/06/04 18:57:55;;;;;;;0.80;0.80;;;;;;;19.28;58.15;96599.47;10492820;28;20460;-33
2023/06/04 19:02:56;;;;;;;1.10;0.93;;;;;;;19.26;58.08;96599.47;10497306;28;20094;-33
2023/06/04 19:07:56;;;;;;;0.93;0.80;;;;;;;19.27;57.95;96600.31;10495295;28;20036;-33
2023/06/04 19:12:57;;;;;;;1.10;1.00;;;;;;;19.20;57.85;96598.66;10490039;28;20390;-32
2023/06/04 19:17:57;;;;;;;0.80;0.80;;;;;;;19.22;57.65;96600.34;10495189;28;20036;-34
2023/06/04 19:22:58;;;;;;;1.00;0.95;;;;;;;19.24;57.80;96610.50;10491571;28;20490;-33
2023/06/04 19:27:58;;;;;;;0.83;0.83;;;;;;;19.44;59.01;96619.69;10495845;28;20082;-33
2023/06/04 19:32:58;;;;;;;0.70;0.70;;;;;;;19.54;57.60;96620.47;10491232;28;20024;-35
2023/06/04 19:37:59;;;;;;;0.97;0.90;;;;;;;19.39;58.36;96625.63;10494904;28;20066;-33
2023/06/04 19:42:59;;;;;;;0.77;0.77;;;;;;;19.33;58.43;96635.84;10489156;28;20553;-32
2023/06/04 19:48:00;;;;;;;0.82;0.82;;;;;;;19.30;58.13;96634.16;10511549;28;20032;-33
2023/06/04 19:53:01;;;;;;;0.80;0.80;;;;;;;19.28;57.74;96642.63;10487088;28;20025;-31
2023/06/04 19:58:01;;;;;;;0.73;0.73;;;;;;;19.26;57.82;96640.09;10499723;28;20089;-32
2023/06/04 20:03:01;;;;;;;0.87;0.80;;;;;;;19.26;57.77;96654.50;10502476;28;20036;-32
2023/06/04 20:08:02;;;;;;;0.70;0.70;;;;;;;19.25;57.93;96647.72;10486178;28;20036;-33
2023/06/04 20:13:02;;;;;;;0.80;0.70;;;;;;;19.25;57.90;96647.72;10493779;28;20031;-32
2023/06/04 20:18:02;;;;;;;0.73;0.73;;;;;;;19.23;57.71;96646.88;10491164;28;20395;-34
2023/06/04 20:23:03;;;;;;;0.80;0.80;;;;;;;19.37;58.54;96645.97;10488554;28;20029;-33
2023/06/04 20:28:03;;;;;;;0.60;0.60;;;;;;;19.55;58.07;96648.41;10492515;28;20036;-33
2023/06/04 20:33:03;;;;;;;0.60;0.60;;;;;;;19.46;58.22;96650.16;10497047;28;20653;-33
2023/06/04 20:38:05;;;;;;;0.80;0.80;;;;;;;19.36;58.21;96645.97;10492417;28;20036;-33
2023/06/04 20:43:05;;;;;;;0.77;0.77;;;;;;;19.32;58.21;96654.44;10487055;28;20036;-33
2023/06/04 20:48:05;;;;;;;0.57;0.57;;;;;;;19.29;57.96;96659.53;10492100;28;20032;-33
2023/06/04 20:53:07;;;;;;;0.70;0.70;;;;;;;19.28;57.75;96662.94;10491306;28;20499;-32
2023/06/04 20:58:07;;;;;;;1.03;1.00;;;;;;;19.25;57.71;96656.16;10491564;28;20028;-32
2023/06/04 21:03:08;;;;;;;0.93;0.50;;;;;;;19.25;57.64;96673.09;10489795;28;20060;-33
2023/06/04 21:08:08;;;;;;;0.93;0.70;;;;;;;19.25;57.73;96673.09;10488690;28;20062;-33
2023/06/04 21:13:08;;;;;;;0.80;0.80;;;;;;;19.23;57.43;96665.50;10473477;28;20032;-32
2023/06/04 21:18:09;;;;;;;0.73;0.73;;;;;;;19.30;60.17;96681.53;10491006;28;20665;-33
2023/06/04 21:23:09;;;;;;;1.23;0.93;;;;;;;19.50;58.35;96677.22;10501209;28;20116;-32
2023/06/04 21:28:09;;;;;;;0.60;0.60;;;;;;;19.52;57.78;96683.13;10485714;28;20036;-33
2023/06/04 21:33:10;;;;;;;0.97;0.87;;;;;;;19.40;58.18;96683.19;10492322;28;20063;-33
2023/06/04 21:38:10;;;;;;;0.70;0.70;;;;;;;19.32;57.93;96680.69;10488532;28;20048;-33
2023/06/04 21:43:11;;;;;;;0.50;0.50;;;;;;;19.28;57.90;96675.63;10491965;28;20414;-32
2023/06/04 21:48:11;;;;;;;0.75;0.75;;;;;;;19.27;57.69;96676.47;10494478;28;20047;-32
2023/06/04 21:53:13;;;;;;;0.90;0.90;;;;;;;19.26;57.77;96677.34;10491595;28;20028;-32
2023/06/04 21:58:13;;;;;;;0.93;0.85;;;;;;;19.26;57.45;96687.47;10479987;28;20118;-32
2023/06/04 22:03:14;;;;;;;0.77;0.77;;;;;;;19.25;57.49;96690.88;10491358;28;20448;-37
2023/06/04 22:08:14;;;;;;;0.80;0.80;;;;;;;19.24;57.55;96687.47;10497093;28;20064;-33
2023/06/04 22:13:15;;;;;;;0.70;0.70;;;;;;;19.25;57.62;96693.41;10496868;28;20270;-33
2023/06/04 22:18:15;;;;;;;0.75;0.65;;;;;;;19.43;58.48;96693.34;10503316;28;20033;-33
2023/06/04 22:23:15;;;;;;;0.63;0.63;;;;;;;19.58;57.74;96690.75;10495660;28;20033;-33
2023/06/04 22:28:16;;;;;;;0.83;0.83;;;;;;;19.45;58.07;96686.56;10488130;28;20020;-34
2023/06/04 22:33:16;;;;;;;0.57;0.57;;;;;;;19.35;58.03;96688.28;10494090;28;20112;-33
2023/06/04 22:38:17;;;;;;;1.03;0.97;;;;;;;19.26;57.95;96684.94;10497537;28;20039;-33
2023/06/04 22:43:17;;;;;;;1.20;0.87;;;;;;;19.26;57.88;96679.88;10478111;28;20040;-33
2023/06/04 22:48:17;;;;;;;0.67;0.67;;;;;;;19.28;57.63;96694.25;10497199;28;20032;-33
2023/06/04 22:53:18;;;;;;;0.70;0.70;;;;;;;19.27;57.76;96691.72;10495080;28;20775;-34
2023/06/04 22:58:19;;;;;;;1.25;1.00;;;;;;;19.27;57.69;96689.16;10473150;28;20411;-33
2023/06/04 23:03:19;;;;;;;1.20;1.10;;;;;;;19.27;57.56;96684.09;10478625;28;20281;-32
2023/06/04 23:08:20;;;;;;;1.00;0.95;;;;;;;19.26;57.65;96688.31;10497249;28;20047;-32
2023/06/04 23:13:20;;;;;;;0.82;0.82;;;;;;;19.35;59.11;96684.91;10478341;28;20512;-32
2023/06/04 23:18:21;;;;;;;0.80;0.80;;;;;;;19.52;58.23;96680.59;10484969;28;20116;-33